sensor_id;sensor_type;location;lat;lon;timestamp;P1;durP1;ratioP1;P2;durP2;ratioP2
23388;SDS011;11867;51.198;11.966;2022-09-11T00:00:48;2.35;;;2.15;;
23388;SDS011;11867;51.198;11.966;2022-09-11T00:05:52;3.15;;;2.53;;
23388;SDS011;11867;51.198;11.966;2022-09-11T00:11:00;3.53;;;2.30;;
23388;SDS011;11867;51.198;11.966;2022-09-11T00:16:04;2.55;;;2.35;;
23388;SDS011;11867;51.198;11.966;2022-09-11T00:21:08;3.03;;;2.25;;
23388;SDS011;11867;51.198;11.966;2022-09-11T00:26:12;2.20;;;2.00;;
23388;SDS011;11867;51.198;11.966;2022-09-11T00:31:15;3.15;;;2.47;;
23388;SDS011;11867;51.198;11.966;2022-09-11T00:36:22;2.35;;;2.20;;
23388;SDS011;11867;51.198;11.966;2022-09-11T00:41:30;2.83;;;2.45;;
23388;SDS011;11867;51.198;11.966;2022-09-11T00:46:38;3.72;;;2.97;;
23388;SDS011;11867;51.198;11.966;2022-09-11T00:51:43;4.05;;;2.70;;
23388;SDS011;11867;51.198;11.966;2022-09-11T00:56:50;3.35;;;2.60;;
23388;SDS011;11867;51.198;11.966;2022-09-11T01:01:54;4.03;;;2.53;;
23388;SDS011;11867;51.198;11.966;2022-09-11T01:06:57;3.15;;;2.75;;
23388;SDS011;11867;51.198;11.966;2022-09-11T01:12:04;3.00;;;2.65;;
23388;SDS011;11867;51.198;11.966;2022-09-11T01:17:16;3.38;;;2.70;;
23388;SDS011;11867;51.198;11.966;2022-09-11T01:22:27;2.58;;;2.22;;
23388;SDS011;11867;51.198;11.966;2022-09-11T01:27:48;4.80;;;2.57;;
23388;SDS011;11867;51.198;11.966;2022-09-11T01:33:00;3.28;;;2.65;;
23388;SDS011;11867;51.198;11.966;2022-09-11T01:38:12;2.35;;;2.15;;
23388;SDS011;11867;51.198;11.966;2022-09-11T01:43:20;2.97;;;2.40;;
23388;SDS011;11867;51.198;11.966;2022-09-11T01:48:28;2.63;;;2.35;;
23388;SDS011;11867;51.198;11.966;2022-09-11T01:53:34;2.97;;;2.50;;
23388;SDS011;11867;51.198;11.966;2022-09-11T01:58:41;3.30;;;2.25;;
23388;SDS011;11867;51.198;11.966;2022-09-11T02:03:49;2.60;;;2.40;;
23388;SDS011;11867;51.198;11.966;2022-09-11T02:08:55;4.22;;;2.38;;
23388;SDS011;11867;51.198;11.966;2022-09-11T02:14:04;2.70;;;2.50;;
23388;SDS011;11867;51.198;11.966;2022-09-11T02:19:11;2.83;;;2.28;;
23388;SDS011;11867;51.198;11.966;2022-09-11T02:24:16;4.97;;;2.25;;
23388;SDS011;11867;51.198;11.966;2022-09-11T02:29:21;2.90;;;2.53;;
23388;SDS011;11867;51.198;11.966;2022-09-11T02:34:25;4.32;;;2.15;;
23388;SDS011;11867;51.198;11.966;2022-09-11T02:39:34;5.28;;;2.97;;
23388;SDS011;11867;51.198;11.966;2022-09-11T02:44:53;4.68;;;2.70;;
23388;SDS011;11867;51.198;11.966;2022-09-11T02:50:06;4.15;;;3.35;;
23388;SDS011;11867;51.198;11.966;2022-09-11T02:55:17;3.40;;;3.10;;
23388;SDS011;11867;51.198;11.966;2022-09-11T03:00:26;4.82;;;3.00;;
23388;SDS011;11867;51.198;11.966;2022-09-11T03:05:29;3.53;;;2.90;;
23388;SDS011;11867;51.198;11.966;2022-09-11T03:10:32;3.22;;;2.92;;
23388;SDS011;11867;51.198;11.966;2022-09-11T03:15:36;3.10;;;2.70;;
23388;SDS011;11867;51.198;11.966;2022-09-11T03:20:38;5.05;;;3.00;;
23388;SDS011;11867;51.198;11.966;2022-09-11T03:25:41;4.03;;;2.80;;
23388;SDS011;11867;51.198;11.966;2022-09-11T03:30:45;5.18;;;3.20;;
23388;SDS011;11867;51.198;11.966;2022-09-11T03:35:49;3.90;;;3.28;;
23388;SDS011;11867;51.198;11.966;2022-09-11T03:40:51;3.17;;;2.88;;
23388;SDS011;11867;51.198;11.966;2022-09-11T03:45:56;4.70;;;3.72;;
23388;SDS011;11867;51.198;11.966;2022-09-11T03:51:00;5.72;;;3.35;;
23388;SDS011;11867;51.198;11.966;2022-09-11T03:56:05;4.00;;;3.45;;
23388;SDS011;11867;51.198;11.966;2022-09-11T04:01:10;3.38;;;3.08;;
23388;SDS011;11867;51.198;11.966;2022-09-11T04:06:14;5.53;;;3.33;;
23388;SDS011;11867;51.198;11.966;2022-09-11T04:11:17;5.75;;;3.20;;
23388;SDS011;11867;51.198;11.966;2022-09-11T04:16:21;4.38;;;3.35;;
23388;SDS011;11867;51.198;11.966;2022-09-11T04:21:23;3.80;;;3.50;;
23388;SDS011;11867;51.198;11.966;2022-09-11T04:26:28;5.55;;;3.60;;
23388;SDS011;11867;51.198;11.966;2022-09-11T04:31:34;4.40;;;3.60;;
23388;SDS011;11867;51.198;11.966;2022-09-11T04:36:38;4.57;;;3.45;;
23388;SDS011;11867;51.198;11.966;2022-09-11T04:41:41;4.55;;;3.72;;
23388;SDS011;11867;51.198;11.966;2022-09-11T04:46:45;3.40;;;3.10;;
23388;SDS011;11867;51.198;11.966;2022-09-11T04:51:48;6.32;;;3.72;;
23388;SDS011;11867;51.198;11.966;2022-09-11T04:56:50;6.00;;;3.90;;
23388;SDS011;11867;51.198;11.966;2022-09-11T05:01:56;4.57;;;3.83;;
23388;SDS011;11867;51.198;11.966;2022-09-11T05:07:10;5.25;;;3.53;;
23388;SDS011;11867;51.198;11.966;2022-09-11T05:12:14;4.38;;;3.80;;
23388;SDS011;11867;51.198;11.966;2022-09-11T05:17:19;3.88;;;3.47;;
23388;SDS011;11867;51.198;11.966;2022-09-11T05:22:21;4.43;;;3.60;;
23388;SDS011;11867;51.198;11.966;2022-09-11T05:27:25;6.10;;;4.00;;
23388;SDS011;11867;51.198;11.966;2022-09-11T05:32:28;5.72;;;4.68;;
23388;SDS011;11867;51.198;11.966;2022-09-11T05:37:31;6.10;;;4.60;;
23388;SDS011;11867;51.198;11.966;2022-09-11T05:42:33;5.07;;;4.57;;
23388;SDS011;11867;51.198;11.966;2022-09-11T05:47:37;6.38;;;5.18;;
23388;SDS011;11867;51.198;11.966;2022-09-11T05:52:40;8.63;;;5.32;;
23388;SDS011;11867;51.198;11.966;2022-09-11T05:57:42;6.18;;;5.22;;
23388;SDS011;11867;51.198;11.966;2022-09-11T06:02:46;6.80;;;5.30;;
23388;SDS011;11867;51.198;11.966;2022-09-11T06:07:49;6.68;;;5.78;;
23388;SDS011;11867;51.198;11.966;2022-09-11T06:12:51;7.20;;;6.10;;
23388;SDS011;11867;51.198;11.966;2022-09-11T06:17:55;10.48;;;7.57;;
23388;SDS011;11867;51.198;11.966;2022-09-11T06:22:58;11.90;;;9.10;;
23388;SDS011;11867;51.198;11.966;2022-09-11T06:28:01;14.32;;;12.10;;
23388;SDS011;11867;51.198;11.966;2022-09-11T06:33:05;15.75;;;12.63;;
23388;SDS011;11867;51.198;11.966;2022-09-11T06:38:08;21.40;;;16.75;;
23388;SDS011;11867;51.198;11.966;2022-09-11T06:43:10;19.08;;;15.15;;
23388;SDS011;11867;51.198;11.966;2022-09-11T06:48:16;23.30;;;15.00;;
23388;SDS011;11867;51.198;11.966;2022-09-11T06:53:19;18.85;;;14.77;;
23388;SDS011;11867;51.198;11.966;2022-09-11T06:58:22;16.45;;;13.25;;
23388;SDS011;11867;51.198;11.966;2022-09-11T07:03:26;14.90;;;13.27;;
23388;SDS011;11867;51.198;11.966;2022-09-11T07:08:29;19.58;;;16.38;;
23388;SDS011;11867;51.198;11.966;2022-09-11T07:13:32;18.33;;;14.30;;
23388;SDS011;11867;51.198;11.966;2022-09-11T07:18:39;19.48;;;13.65;;
23388;SDS011;11867;51.198;11.966;2022-09-11T07:23:45;16.85;;;12.05;;
23388;SDS011;11867;51.198;11.966;2022-09-11T07:28:49;13.30;;;10.65;;
23388;SDS011;11867;51.198;11.966;2022-09-11T07:33:54;11.98;;;10.30;;
23388;SDS011;11867;51.198;11.966;2022-09-11T07:38:57;15.38;;;12.50;;
23388;SDS011;11867;51.198;11.966;2022-09-11T07:44:00;12.73;;;11.38;;
23388;SDS011;11867;51.198;11.966;2022-09-11T07:49:05;16.50;;;13.00;;
23388;SDS011;11867;51.198;11.966;2022-09-11T07:54:10;12.85;;;11.57;;
23388;SDS011;11867;51.198;11.966;2022-09-11T07:59:13;14.82;;;12.35;;
23388;SDS011;11867;51.198;11.966;2022-09-11T08:04:17;15.20;;;12.80;;
23388;SDS011;11867;51.198;11.966;2022-09-11T08:09:20;21.77;;;13.38;;
23388;SDS011;11867;51.198;11.966;2022-09-11T08:14:23;14.25;;;12.45;;
23388;SDS011;11867;51.198;11.966;2022-09-11T08:19:28;16.45;;;13.73;;
23388;SDS011;11867;51.198;11.966;2022-09-11T08:24:30;17.92;;;13.20;;
23388;SDS011;11867;51.198;11.966;2022-09-11T08:29:34;17.67;;;14.27;;
23388;SDS011;11867;51.198;11.966;2022-09-11T08:34:37;16.02;;;13.02;;
23388;SDS011;11867;51.198;11.966;2022-09-11T08:39:40;17.65;;;13.25;;
23388;SDS011;11867;51.198;11.966;2022-09-11T08:44:44;15.35;;;13.45;;
23388;SDS011;11867;51.198;11.966;2022-09-11T08:49:52;14.10;;;12.13;;
23388;SDS011;11867;51.198;11.966;2022-09-11T08:54:59;15.48;;;11.27;;
23388;SDS011;11867;51.198;11.966;2022-09-11T09:00:06;14.40;;;12.23;;
23388;SDS011;11867;51.198;11.966;2022-09-11T09:05:21;17.45;;;15.65;;
23388;SDS011;11867;51.198;11.966;2022-09-11T09:15:46;19.60;;;17.27;;
23388;SDS011;11867;51.198;11.966;2022-09-11T09:20:58;19.38;;;15.88;;
23388;SDS011;11867;51.198;11.966;2022-09-11T09:26:03;15.68;;;13.73;;
23388;SDS011;11867;51.198;11.966;2022-09-11T09:31:09;22.63;;;18.48;;
23388;SDS011;11867;51.198;11.966;2022-09-11T09:36:17;25.38;;;19.42;;
23388;SDS011;11867;51.198;11.966;2022-09-11T09:41:30;17.95;;;15.38;;
23388;SDS011;11867;51.198;11.966;2022-09-11T09:46:50;19.30;;;14.32;;
23388;SDS011;11867;51.198;11.966;2022-09-11T09:51:56;20.85;;;16.42;;
23388;SDS011;11867;51.198;11.966;2022-09-11T09:57:05;28.58;;;23.35;;
23388;SDS011;11867;51.198;11.966;2022-09-11T10:02:10;28.63;;;23.60;;
23388;SDS011;11867;51.198;11.966;2022-09-11T10:07:16;23.38;;;20.00;;
23388;SDS011;11867;51.198;11.966;2022-09-11T10:12:24;20.10;;;18.00;;
23388;SDS011;11867;51.198;11.966;2022-09-11T10:17:31;17.55;;;15.65;;
23388;SDS011;11867;51.198;11.966;2022-09-11T10:22:39;15.38;;;11.85;;
23388;SDS011;11867;51.198;11.966;2022-09-11T10:27:46;12.55;;;10.80;;
23388;SDS011;11867;51.198;11.966;2022-09-11T10:32:56;14.77;;;9.98;;
23388;SDS011;11867;51.198;11.966;2022-09-11T10:38:15;11.98;;;9.00;;
23388;SDS011;11867;51.198;11.966;2022-09-11T10:43:20;8.10;;;7.28;;
23388;SDS011;11867;51.198;11.966;2022-09-11T10:48:25;10.95;;;9.52;;
23388;SDS011;11867;51.198;11.966;2022-09-11T10:53:29;9.32;;;8.32;;
23388;SDS011;11867;51.198;11.966;2022-09-11T10:58:41;8.35;;;6.95;;
23388;SDS011;11867;51.198;11.966;2022-09-11T11:03:47;6.60;;;5.15;;
23388;SDS011;11867;51.198;11.966;2022-09-11T11:08:55;6.50;;;5.75;;
23388;SDS011;11867;51.198;11.966;2022-09-11T11:14:09;5.28;;;4.50;;
23388;SDS011;11867;51.198;11.966;2022-09-11T11:19:28;4.70;;;4.30;;
23388;SDS011;11867;51.198;11.966;2022-09-11T11:24:45;5.80;;;5.30;;
23388;SDS011;11867;51.198;11.966;2022-09-11T11:30:02;6.43;;;5.80;;
23388;SDS011;11867;51.198;11.966;2022-09-11T11:35:14;6.60;;;5.47;;
23388;SDS011;11867;51.198;11.966;2022-09-11T11:40:25;5.40;;;4.90;;
23388;SDS011;11867;51.198;11.966;2022-09-11T11:45:30;5.07;;;4.47;;
23388;SDS011;11867;51.198;11.966;2022-09-11T11:50:38;4.25;;;3.30;;
23388;SDS011;11867;51.198;11.966;2022-09-11T11:55:47;3.47;;;3.17;;
23388;SDS011;11867;51.198;11.966;2022-09-11T12:00:58;3.50;;;3.17;;
23388;SDS011;11867;51.198;11.966;2022-09-11T12:06:03;3.10;;;2.80;;
23388;SDS011;11867;51.198;11.966;2022-09-11T12:11:09;3.53;;;2.80;;
23388;SDS011;11867;51.198;11.966;2022-09-11T12:16:14;2.78;;;2.55;;
23388;SDS011;11867;51.198;11.966;2022-09-11T12:21:37;4.00;;;3.20;;
23388;SDS011;11867;51.198;11.966;2022-09-11T12:26:43;3.05;;;2.85;;
23388;SDS011;11867;51.198;11.966;2022-09-11T12:37:21;6.30;;;4.47;;
23388;SDS011;11867;51.198;11.966;2022-09-11T12:48:18;6.10;;;5.03;;
23388;SDS011;11867;51.198;11.966;2022-09-11T12:53:25;5.53;;;4.72;;
23388;SDS011;11867;51.198;11.966;2022-09-11T12:58:33;7.97;;;5.28;;
23388;SDS011;11867;51.198;11.966;2022-09-11T13:03:44;10.88;;;6.22;;
23388;SDS011;11867;51.198;11.966;2022-09-11T13:08:52;7.43;;;6.57;;
23388;SDS011;11867;51.198;11.966;2022-09-11T13:14:01;6.90;;;5.43;;
23388;SDS011;11867;51.198;11.966;2022-09-11T13:19:08;9.77;;;5.85;;
23388;SDS011;11867;51.198;11.966;2022-09-11T13:24:20;8.10;;;5.78;;
23388;SDS011;11867;51.198;11.966;2022-09-11T13:29:27;6.47;;;5.47;;
23388;SDS011;11867;51.198;11.966;2022-09-11T13:34:31;8.52;;;6.32;;
23388;SDS011;11867;51.198;11.966;2022-09-11T13:39:38;8.55;;;6.32;;
23388;SDS011;11867;51.198;11.966;2022-09-11T13:44:44;9.43;;;5.68;;
23388;SDS011;11867;51.198;11.966;2022-09-11T13:49:50;11.27;;;5.38;;
23388;SDS011;11867;51.198;11.966;2022-09-11T13:54:57;7.50;;;5.32;;
23388;SDS011;11867;51.198;11.966;2022-09-11T14:00:34;6.25;;;5.30;;
23388;SDS011;11867;51.198;11.966;2022-09-11T14:05:46;5.95;;;4.78;;
23388;SDS011;11867;51.198;11.966;2022-09-11T14:10:51;8.13;;;4.45;;
23388;SDS011;11867;51.198;11.966;2022-09-11T14:15:58;5.68;;;4.25;;
23388;SDS011;11867;51.198;11.966;2022-09-11T14:21:05;3.88;;;3.45;;
23388;SDS011;11867;51.198;11.966;2022-09-11T14:26:15;4.30;;;3.70;;
23388;SDS011;11867;51.198;11.966;2022-09-11T14:31:27;3.17;;;2.83;;
23388;SDS011;11867;51.198;11.966;2022-09-11T14:36:38;3.22;;;2.92;;
23388;SDS011;11867;51.198;11.966;2022-09-11T14:41:44;3.00;;;2.40;;
23388;SDS011;11867;51.198;11.966;2022-09-11T14:46:48;5.38;;;3.53;;
23388;SDS011;11867;51.198;11.966;2022-09-11T14:51:52;5.82;;;2.78;;
23388;SDS011;11867;51.198;11.966;2022-09-11T14:56:58;2.50;;;2.22;;
23388;SDS011;11867;51.198;11.966;2022-09-11T15:02:02;4.55;;;2.90;;
23388;SDS011;11867;51.198;11.966;2022-09-11T15:07:07;4.32;;;2.30;;
23388;SDS011;11867;51.198;11.966;2022-09-11T15:12:12;3.85;;;2.70;;
23388;SDS011;11867;51.198;11.966;2022-09-11T15:22:20;2.55;;;2.28;;
23388;SDS011;11867;51.198;11.966;2022-09-11T15:27:23;3.10;;;2.40;;
23388;SDS011;11867;51.198;11.966;2022-09-11T15:32:27;5.15;;;2.40;;
23388;SDS011;11867;51.198;11.966;2022-09-11T15:37:31;6.68;;;2.58;;
23388;SDS011;11867;51.198;11.966;2022-09-11T15:42:34;2.63;;;2.33;;
23388;SDS011;11867;51.198;11.966;2022-09-11T15:47:41;3.33;;;2.22;;
23388;SDS011;11867;51.198;11.966;2022-09-11T15:52:44;7.95;;;2.58;;
23388;SDS011;11867;51.198;11.966;2022-09-11T15:57:47;2.55;;;2.30;;
23388;SDS011;11867;51.198;11.966;2022-09-11T16:02:51;2.45;;;2.17;;
23388;SDS011;11867;51.198;11.966;2022-09-11T16:12:59;2.70;;;2.42;;
23388;SDS011;11867;51.198;11.966;2022-09-11T16:18:03;3.22;;;2.42;;
23388;SDS011;11867;51.198;11.966;2022-09-11T16:23:10;3.95;;;2.55;;
23388;SDS011;11867;51.198;11.966;2022-09-11T16:28:13;3.70;;;2.53;;
23388;SDS011;11867;51.198;11.966;2022-09-11T16:33:16;3.15;;;2.50;;
23388;SDS011;11867;51.198;11.966;2022-09-11T16:38:19;3.75;;;2.40;;
23388;SDS011;11867;51.198;11.966;2022-09-11T16:43:22;3.00;;;2.38;;
23388;SDS011;11867;51.198;11.966;2022-09-11T16:48:26;1.73;;;1.63;;
23388;SDS011;11867;51.198;11.966;2022-09-11T16:53:30;2.53;;;1.67;;
23388;SDS011;11867;51.198;11.966;2022-09-11T16:58:34;2.22;;;1.67;;
23388;SDS011;11867;51.198;11.966;2022-09-11T17:03:38;3.70;;;2.13;;
23388;SDS011;11867;51.198;11.966;2022-09-11T17:08:42;2.83;;;1.80;;
23388;SDS011;11867;51.198;11.966;2022-09-11T17:13:45;3.35;;;2.08;;
23388;SDS011;11867;51.198;11.966;2022-09-11T17:18:53;2.05;;;1.85;;
23388;SDS011;11867;51.198;11.966;2022-09-11T17:23:58;4.30;;;2.03;;
23388;SDS011;11867;51.198;11.966;2022-09-11T17:29:01;2.75;;;2.33;;
23388;SDS011;11867;51.198;11.966;2022-09-11T17:34:07;3.75;;;2.50;;
23388;SDS011;11867;51.198;11.966;2022-09-11T17:39:11;3.00;;;2.70;;
23388;SDS011;11867;51.198;11.966;2022-09-11T17:44:14;3.50;;;2.38;;
23388;SDS011;11867;51.198;11.966;2022-09-11T17:49:18;3.70;;;2.78;;
23388;SDS011;11867;51.198;11.966;2022-09-11T17:54:23;2.75;;;2.55;;
23388;SDS011;11867;51.198;11.966;2022-09-11T17:59:27;2.88;;;2.55;;
23388;SDS011;11867;51.198;11.966;2022-09-11T18:04:31;3.25;;;2.95;;
23388;SDS011;11867;51.198;11.966;2022-09-11T18:09:33;3.80;;;3.50;;
23388;SDS011;11867;51.198;11.966;2022-09-11T18:14:38;4.53;;;3.92;;
23388;SDS011;11867;51.198;11.966;2022-09-11T18:19:45;3.45;;;3.15;;
23388;SDS011;11867;51.198;11.966;2022-09-11T18:24:49;5.65;;;3.60;;
23388;SDS011;11867;51.198;11.966;2022-09-11T18:29:51;6.10;;;4.57;;
23388;SDS011;11867;51.198;11.966;2022-09-11T18:34:56;6.00;;;4.30;;
23388;SDS011;11867;51.198;11.966;2022-09-11T18:40:00;5.40;;;4.63;;
23388;SDS011;11867;51.198;11.966;2022-09-11T18:45:03;5.68;;;4.45;;
23388;SDS011;11867;51.198;11.966;2022-09-11T18:50:10;5.45;;;4.15;;
23388;SDS011;11867;51.198;11.966;2022-09-11T18:55:12;5.85;;;5.20;;
23388;SDS011;11867;51.198;11.966;2022-09-11T19:00:16;5.88;;;4.78;;
23388;SDS011;11867;51.198;11.966;2022-09-11T19:05:22;6.78;;;5.20;;
23388;SDS011;11867;51.198;11.966;2022-09-11T19:10:26;6.25;;;5.60;;
23388;SDS011;11867;51.198;11.966;2022-09-11T19:15:29;8.53;;;5.43;;
23388;SDS011;11867;51.198;11.966;2022-09-11T19:20:33;9.48;;;6.00;;
23388;SDS011;11867;51.198;11.966;2022-09-11T19:25:36;6.10;;;5.50;;
23388;SDS011;11867;51.198;11.966;2022-09-11T19:30:39;7.57;;;6.03;;
23388;SDS011;11867;51.198;11.966;2022-09-11T19:35:44;6.95;;;5.75;;
23388;SDS011;11867;51.198;11.966;2022-09-11T19:40:55;6.60;;;5.47;;
23388;SDS011;11867;51.198;11.966;2022-09-11T19:46:00;6.63;;;5.85;;
23388;SDS011;11867;51.198;11.966;2022-09-11T19:51:06;8.20;;;5.63;;
23388;SDS011;11867;51.198;11.966;2022-09-11T19:56:10;7.50;;;5.85;;
23388;SDS011;11867;51.198;11.966;2022-09-11T20:01:14;6.53;;;5.45;;
23388;SDS011;11867;51.198;11.966;2022-09-11T20:06:19;6.45;;;5.43;;
23388;SDS011;11867;51.198;11.966;2022-09-11T20:11:25;6.53;;;5.90;;
23388;SDS011;11867;51.198;11.966;2022-09-11T20:16:28;6.72;;;6.05;;
23388;SDS011;11867;51.198;11.966;2022-09-11T20:21:33;7.88;;;6.50;;
23388;SDS011;11867;51.198;11.966;2022-09-11T20:26:36;9.48;;;7.15;;
23388;SDS011;11867;51.198;11.966;2022-09-11T20:31:39;9.00;;;7.15;;
23388;SDS011;11867;51.198;11.966;2022-09-11T20:36:49;9.18;;;7.15;;
23388;SDS011;11867;51.198;11.966;2022-09-11T20:41:52;10.15;;;7.13;;
23388;SDS011;11867;51.198;11.966;2022-09-11T20:46:55;8.98;;;7.60;;
23388;SDS011;11867;51.198;11.966;2022-09-11T20:51:59;9.50;;;7.15;;
23388;SDS011;11867;51.198;11.966;2022-09-11T20:57:01;8.60;;;7.47;;
23388;SDS011;11867;51.198;11.966;2022-09-11T21:02:04;12.32;;;7.95;;
23388;SDS011;11867;51.198;11.966;2022-09-11T21:07:08;9.43;;;8.40;;
23388;SDS011;11867;51.198;11.966;2022-09-11T21:12:11;10.05;;;8.35;;
23388;SDS011;11867;51.198;11.966;2022-09-11T21:17:15;9.55;;;8.45;;
23388;SDS011;11867;51.198;11.966;2022-09-11T21:22:19;8.65;;;7.85;;
23388;SDS011;11867;51.198;11.966;2022-09-11T21:27:22;11.52;;;8.80;;
23388;SDS011;11867;51.198;11.966;2022-09-11T21:32:24;9.80;;;8.30;;
23388;SDS011;11867;51.198;11.966;2022-09-11T21:37:28;10.43;;;8.80;;
23388;SDS011;11867;51.198;11.966;2022-09-11T21:42:30;10.65;;;8.70;;
23388;SDS011;11867;51.198;11.966;2022-09-11T21:47:33;11.05;;;9.23;;
23388;SDS011;11867;51.198;11.966;2022-09-11T21:52:37;9.35;;;8.20;;
23388;SDS011;11867;51.198;11.966;2022-09-11T21:57:39;11.50;;;8.57;;
23388;SDS011;11867;51.198;11.966;2022-09-11T22:02:42;11.27;;;8.60;;
23388;SDS011;11867;51.198;11.966;2022-09-11T22:07:45;10.35;;;8.57;;
23388;SDS011;11867;51.198;11.966;2022-09-11T22:17:51;11.15;;;8.45;;
23388;SDS011;11867;51.198;11.966;2022-09-11T22:22:55;11.35;;;8.85;;
23388;SDS011;11867;51.198;11.966;2022-09-11T22:27:58;10.98;;;9.40;;
23388;SDS011;11867;51.198;11.966;2022-09-11T22:33:01;13.07;;;10.07;;
23388;SDS011;11867;51.198;11.966;2022-09-11T22:38:05;12.00;;;9.32;;
23388;SDS011;11867;51.198;11.966;2022-09-11T22:43:07;15.07;;;9.70;;
23388;SDS011;11867;51.198;11.966;2022-09-11T22:48:10;11.23;;;9.45;;
23388;SDS011;11867;51.198;11.966;2022-09-11T22:53:15;12.88;;;9.13;;
23388;SDS011;11867;51.198;11.966;2022-09-11T22:58:18;11.35;;;9.77;;
23388;SDS011;11867;51.198;11.966;2022-09-11T23:03:21;10.52;;;9.23;;
23388;SDS011;11867;51.198;11.966;2022-09-11T23:08:29;13.55;;;9.65;;
23388;SDS011;11867;51.198;11.966;2022-09-11T23:18:42;12.45;;;10.00;;
23388;SDS011;11867;51.198;11.966;2022-09-11T23:23:48;14.25;;;10.95;;
23388;SDS011;11867;51.198;11.966;2022-09-11T23:28:54;13.35;;;11.20;;
23388;SDS011;11867;51.198;11.966;2022-09-11T23:34:00;14.73;;;10.60;;
23388;SDS011;11867;51.198;11.966;2022-09-11T23:44:08;16.35;;;11.40;;
23388;SDS011;11867;51.198;11.966;2022-09-11T23:49:11;14.38;;;10.52;;
23388;SDS011;11867;51.198;11.966;2022-09-11T23:54:16;14.93;;;11.25;;
23388;SDS011;11867;51.198;11.966;2022-09-11T23:59:19;15.55;;;10.82;;
